Time;durP1;ratioP1;P1;durP2;ratioP2;P2;SDS_P1;SDS_P2;PMS_P1;PMS_P2;Temp;Humidity;BMP_temperature;BMP_pressure;BME280_temperature;BME280_humidity;BME280_pressure;Samples;Min_cycle;Max_cycle;Signal;HPM_P1;HPM_P2
2022/10/22 00:00:53;731036.00;2.44;1261.10;162643.00;0.54;281.59;;;;;17.50;14.30;;;;;;2269245;61;1457;-86
2022/10/22 00:03:20;435044.00;1.45;750.06;26770.00;0.09;46.99;;;;;17.30;13.80;;;;;;2269340;61;1163;-87
2022/10/22 00:05:48;266327.00;0.89;460.03;45476.00;0.15;79.36;;;;;17.40;15.50;;;;;;2269269;61;1997;-85
2022/10/22 00:08:15;337966.00;1.13;583.18;54751.00;0.18;95.40;;;;;17.60;14.60;;;;;;2268484;61;1388;-87
2022/10/22 00:13:27;43747.00;0.15;76.37;0.00;0.00;0.62;;;;;17.60;12.30;;;;;;2268356;61;1431;-85
2022/10/22 00:15:59;301631.00;1.01;520.72;0.00;0.00;0.62;;;;;17.70;13.00;;;;;;2268585;61;1646;-86
2022/10/22 00:18:26;141141.00;0.47;244.54;0.00;0.00;0.62;;;;;18.00;12.20;;;;;;2268671;61;1083;-86
2022/10/22 00:20:53;350350.00;1.17;604.46;33451.00;0.11;58.56;;;;;18.10;10.30;;;;;;2268601;61;1594;-86
2022/10/22 00:23:20;175223.00;0.58;303.26;0.00;0.00;0.62;;;;;17.90;11.00;;;;;;2268490;61;1386;-86
2022/10/22 00:25:48;274774.00;0.92;474.55;29526.00;0.10;51.76;;;;;17.80;12.20;;;;;;2268527;61;1910;-86
2022/10/22 00:28:18;91074.00;0.30;158.16;0.00;0.00;0.62;;;;;17.90;10.70;;;;;;2268586;61;1017;-86
2022/10/22 00:30:45;151053.00;0.50;261.62;0.00;0.00;0.62;;;;;18.00;10.20;;;;;;2268488;61;988;-87
2022/10/22 00:33:12;161124.00;0.54;278.98;0.00;0.00;0.62;;;;;18.00;9.90;;;;;;2268618;61;908;-88
2022/10/22 00:35:42;193895.00;0.65;335.41;0.00;0.00;0.62;;;;;18.30;9.00;;;;;;2268429;61;1547;-87
2022/10/22 00:38:09;172399.00;0.57;298.40;0.00;0.00;0.62;;;;;18.50;8.90;;;;;;2268550;61;1111;-87
2022/10/22 00:40:36;219037.00;0.73;378.69;20651.00;0.07;36.40;;;;;18.30;7.90;;;;;;2268570;61;1045;-86
2022/10/22 00:43:04;68903.00;0.23;119.86;0.00;0.00;0.62;;;;;18.30;7.90;;;;;;2268564;61;992;-87
2022/10/22 00:45:31;177565.00;0.59;307.30;0.00;0.00;0.62;;;;;17.90;8.40;;;;;;2268461;61;2014;-86
2022/10/22 00:48:03;155487.00;0.52;269.26;0.00;0.00;0.62;;;;;18.00;8.60;;;;;;2268526;61;937;-88
2022/10/22 00:50:34;16150.00;0.05;28.60;0.00;0.00;0.62;;;;;18.30;7.30;;;;;;2268529;61;1051;-87
2022/10/22 00:53:04;195217.00;0.65;337.69;84739.00;0.28;147.22;;;;;18.50;8.00;;;;;;2268482;61;1465;-86
2022/10/22 00:55:33;112428.00;0.37;195.02;0.00;0.00;0.62;;;;;18.50;7.20;;;;;;2268475;61;1455;-86
2022/10/22 00:58:02;87507.00;0.29;152.00;0.00;0.00;0.62;;;;;18.80;7.10;;;;;;2268488;61;1067;-87
2022/10/22 01:00:30;24324.00;0.08;42.76;0.00;0.00;0.62;;;;;18.70;5.90;;;;;;2268510;61;1416;-88
2022/10/22 01:03:00;166549.00;0.56;288.32;0.00;0.00;0.62;;;;;18.90;6.60;;;;;;2268487;61;915;-86
2022/10/22 01:05:31;240435.00;0.80;415.50;0.00;0.00;0.62;;;;;19.00;6.70;;;;;;2268294;61;2013;-87
2022/10/22 01:07:58;186043.00;0.62;321.90;53618.00;0.18;93.44;;;;;19.00;6.10;;;;;;2268407;61;1519;-86
2022/10/22 01:10:44;250800.00;0.84;433.33;55608.00;0.19;96.88;;;;;19.00;5.60;;;;;;2268467;61;1416;-87
2022/10/22 01:16:43;51514.00;0.17;89.80;0.00;0.00;0.62;;;;;19.00;5.40;;;;;;2268397;61;1297;-86
2022/10/22 01:19:29;123366.00;0.41;213.89;0.00;0.00;0.62;;;;;18.60;5.20;;;;;;2268326;61;1459;-86
2022/10/22 01:22:04;57408.00;0.19;100.00;0.00;0.00;0.62;;;;;18.40;6.00;;;;;;2268447;61;1068;-85
2022/10/22 01:24:52;4960.00;0.02;9.22;0.00;0.00;0.62;;;;;18.60;6.10;;;;;;2268233;61;1407;-87
2022/10/22 01:27:33;130462.00;0.43;226.13;0.00;0.00;0.62;;;;;18.50;6.00;;;;;;2268375;61;1037;-88
2022/10/22 01:30:05;238182.00;0.79;411.62;14768.00;0.05;26.21;;;;;18.20;7.20;;;;;;2268470;61;913;-87
2022/10/22 01:32:37;163899.00;0.55;283.76;13344.00;0.04;23.74;;;;;17.60;8.20;;;;;;2268363;61;1531;-86
2022/10/22 01:35:09;46731.00;0.16;81.53;0.00;0.00;0.62;;;;;17.50;9.70;;;;;;2268351;61;1349;-87
2022/10/22 01:37:41;83534.00;0.28;145.14;0.00;0.00;0.62;;;;;17.40;9.90;;;;;;2268386;61;1079;-86
2022/10/22 01:40:10;30238.00;0.10;53.00;0.00;0.00;0.62;;;;;17.40;9.70;;;;;;2268301;61;1059;-87
2022/10/22 01:42:37;200502.00;0.67;346.79;0.00;0.00;0.62;;;;;17.50;9.10;;;;;;2268266;61;1658;-86
2022/10/22 01:45:12;140538.00;0.47;243.50;0.00;0.00;0.62;;;;;17.60;9.70;;;;;;2268327;61;1989;-85
2022/10/22 01:47:50;151142.00;0.50;261.78;0.00;0.00;0.62;;;;;17.70;9.40;;;;;;2268321;61;1582;-88
2022/10/22 01:50:46;32068.00;0.11;56.16;0.00;0.00;0.62;;;;;17.80;9.40;;;;;;2268362;61;1092;-87
2022/10/22 01:53:24;259790.00;0.87;448.79;20912.00;0.07;36.85;;;;;17.70;8.70;;;;;;2268342;61;1001;-86
2022/10/22 01:56:21;215251.00;0.72;372.17;61735.00;0.21;107.48;;;;;17.80;8.60;;;;;;2268189;61;1603;-87
2022/10/22 01:58:56;235645.00;0.79;407.26;0.00;0.00;0.62;;;;;17.80;7.70;;;;;;2268276;61;993;-87
2022/10/22 02:01:33;205315.00;0.68;355.07;50629.00;0.17;88.27;;;;;17.80;8.30;;;;;;2268238;61;1695;-85
2022/10/22 02:04:07;153912.00;0.51;266.55;0.00;0.00;0.62;;;;;17.80;7.70;;;;;;2268249;61;1581;-87
2022/10/22 02:06:39;185176.00;0.62;320.40;0.00;0.00;0.62;;;;;17.70;7.20;;;;;;2268267;61;2002;-86
2022/10/22 02:09:08;70278.00;0.23;122.24;0.00;0.00;0.62;;;;;17.90;7.10;;;;;;2268337;61;1032;-87
2022/10/22 02:11:35;249062.00;0.83;430.34;0.00;0.00;0.62;;;;;18.10;7.70;;;;;;2268261;61;1530;-86
2022/10/22 02:14:05;288965.00;0.96;498.95;82520.00;0.28;143.39;;;;;18.20;6.70;;;;;;2268298;61;955;-86
2022/10/22 02:16:37;173118.00;0.58;299.64;0.00;0.00;0.62;;;;;18.20;6.80;;;;;;2268187;61;1453;-86
2022/10/22 02:19:14;211366.00;0.70;365.49;0.00;0.00;0.62;;;;;18.10;6.90;;;;;;2268233;61;1435;-86
2022/10/22 02:21:41;194766.00;0.65;336.91;0.00;0.00;0.62;;;;;18.10;5.80;;;;;;2267991;61;1299;-87
2022/10/22 02:24:10;60626.00;0.20;105.56;0.00;0.00;0.62;;;;;18.20;6.90;;;;;;2268230;61;1017;-87
2022/10/22 02:26:43;335998.00;1.12;579.80;0.00;0.00;0.62;;;;;18.20;6.40;;;;;;2268065;61;2000;-86
2022/10/22 02:29:16;228245.00;0.76;394.53;35676.00;0.12;62.41;;;;;18.10;6.80;;;;;;2268225;61;1730;-87
2022/10/22 02:31:48;122802616.00;409.34;75024824.00;0.00;0.00;0.62;;;;;17.90;7.00;;;;;;2268082;61;1043;-86
2022/10/22 02:34:21;66497.00;0.22;115.71;0.00;0.00;0.62;;;;;17.90;6.90;;;;;;2268194;61;1080;-85
2022/10/22 02:36:49;333790.00;1.11;576.00;49101.00;0.16;85.63;;;;;18.00;7.10;;;;;;2268220;61;1009;-86
2022/10/22 02:39:17;137706.00;0.46;238.62;0.00;0.00;0.62;;;;;18.00;7.50;;;;;;2268184;61;1077;-86
2022/10/22 02:41:44;223675.00;0.75;386.67;0.00;0.00;0.62;;;;;18.10;7.70;;;;;;2268063;61;1540;-87
2022/10/22 02:44:12;214145.00;0.71;370.27;69614.00;0.23;121.09;;;;;17.80;6.60;;;;;;2268205;61;822;-86
2022/10/22 02:46:41;219229.00;0.73;379.02;16430.00;0.05;29.09;;;;;17.70;7.20;;;;;;2268079;61;2002;-87
2022/10/22 02:49:10;173433.00;0.58;300.18;0.00;0.00;0.62;;;;;17.70;7.90;;;;;;2268108;61;1340;-86
2022/10/22 02:51:37;134704.00;0.45;233.44;0.00;0.00;0.62;;;;;17.70;7.10;;;;;;2268178;61;938;-86
2022/10/22 02:54:04;251177.00;0.84;433.98;61657.00;0.21;107.34;;;;;17.40;7.30;;;;;;2268076;61;1456;-86
2022/10/22 02:56:32;248573.00;0.83;429.50;0.00;0.00;0.62;;;;;17.40;8.90;;;;;;2268115;61;1299;-86
2022/10/22 02:58:59;156192.00;0.52;270.48;0.00;0.00;0.62;;;;;17.20;8.90;;;;;;2267912;61;1597;-87
2022/10/22 03:01:26;195836.00;0.65;338.76;50019.00;0.17;87.22;;;;;16.90;9.20;;;;;;2267972;61;1410;-86
2022/10/22 03:03:52;217099.00;0.72;375.35;41432.00;0.14;72.37;;;;;16.70;10.20;;;;;;2268090;61;1403;-87
2022/10/22 03:06:21;153155.00;0.51;265.24;0.00;0.00;0.62;;;;;16.60;11.20;;;;;;2268056;61;2018;-85
2022/10/22 03:08:48;437096.00;1.46;753.59;82145.00;0.27;142.74;;;;;16.70;11.50;;;;;;2267968;61;1377;-86
2022/10/22 03:11:15;154013.00;0.51;266.72;0.00;0.00;0.62;;;;;16.80;10.50;;;;;;2268107;61;1083;-88
2022/10/22 03:13:42;203236.00;0.68;351.49;85222.00;0.28;148.06;;;;;16.90;9.80;;;;;;2268053;61;988;-87
2022/10/22 03:16:09;169010.00;0.56;292.56;29767.00;0.10;52.18;;;;;16.60;11.50;;;;;;2268066;61;1211;-87
2022/10/22 03:18:37;159298.00;0.53;275.83;0.00;0.00;0.62;;;;;16.70;11.70;;;;;;2268008;61;1507;-88
2022/10/22 03:21:10;144538.00;0.48;250.39;0.00;0.00;0.62;;;;;17.10;10.00;;;;;;2268090;61;1044;-86
2022/10/22 03:23:41;455657.00;1.52;785.51;0.00;0.00;0.62;;;;;16.80;11.20;;;;;;2268082;61;981;-85
2022/10/22 03:26:10;166625.00;0.56;288.45;0.00;0.00;0.62;;;;;16.50;11.40;;;;;;2267958;61;2177;-88
2022/10/22 03:28:38;265549.00;0.89;458.69;39780.00;0.13;69.51;;;;;16.60;12.20;;;;;;2268028;61;972;-88
2022/10/22 03:31:05;400311.00;1.33;690.34;34565.00;0.12;60.48;;;;;16.90;10.30;;;;;;2267993;61;2143;-87
2022/10/22 03:33:32;37908.00;0.13;66.27;0.00;0.00;0.62;;;;;17.20;8.90;;;;;;2267855;61;1017;-87
2022/10/22 03:36:03;174693.00;0.58;302.35;0.00;0.00;0.62;;;;;17.30;8.30;;;;;;2268013;61;1270;-87
2022/10/22 03:41:16;1210538.00;4.04;2109.28;0.00;0.00;0.62;;;;;17.00;9.40;;;;;;2041814;60;1733;-86
2022/10/22 03:43:48;320858.00;1.07;553.77;76945.00;0.26;133.76;;;;;17.30;8.00;;;;;;2269366;61;1490;-86
2022/10/22 03:46:15;338600.00;1.13;584.27;70221.00;0.23;122.14;;;;;17.60;6.90;;;;;;2268710;61;1914;-87
2022/10/22 03:48:43;519879.00;1.73;896.06;73176.00;0.24;127.25;;;;;17.80;6.60;;;;;;2285220;40;3791;-86
2022/10/22 03:51:10;401349.00;1.34;692.12;125780.00;0.42;218.05;;;;;17.80;4.70;;;;;;2277314;61;1054;-87
2022/10/22 03:53:39;462422.00;1.54;797.15;93608.00;0.31;162.54;;;;;18.00;6.70;;;;;;2277313;61;1508;-86
2022/10/22 03:56:15;1072647.00;3.58;1861.58;169500.00;0.56;293.41;;;;;18.00;5.40;;;;;;2330926;56;3727;-86
2022/10/22 03:58:45;625018.00;2.08;1077.44;165078.00;0.55;285.79;;;;;17.80;6.00;;;;;;2277440;61;1788;-87
2022/10/22 04:01:13;703863.00;2.35;1213.94;70168.00;0.23;122.05;;;;;17.80;5.80;;;;;;2277489;61;797;-85
2022/10/22 04:03:41;534475.00;1.78;921.20;68529.00;0.23;119.22;;;;;18.00;4.90;;;;;;2276766;61;1563;-86
2022/10/22 04:06:10;554887.00;1.85;956.38;130535.00;0.44;226.25;;;;;18.20;5.60;;;;;;2276647;61;1914;-86
2022/10/22 04:08:39;618817.00;2.06;1066.72;70555.00;0.24;122.72;;;;;18.30;4.90;;;;;;2276605;61;1015;-87
2022/10/22 04:11:09;598303.00;1.99;1031.29;75604.00;0.25;131.44;;;;;18.30;4.90;;;;;;2276746;61;927;-88
2022/10/22 04:13:40;145694.00;0.49;252.39;0.00;0.00;0.62;;;;;18.20;4.90;;;;;;2276664;61;1516;-86
2022/10/22 04:16:08;240653.00;0.80;415.87;0.00;0.00;0.62;;;;;18.20;4.90;;;;;;2276555;61;1522;-87
2022/10/22 04:18:35;223045.00;0.74;385.58;0.00;0.00;0.62;;;;;18.20;4.90;;;;;;2276575;61;1433;-87
2022/10/22 04:21:03;520414.00;1.73;896.98;0.00;0.00;0.62;;;;;18.40;5.00;;;;;;2276686;61;1792;-88
2022/10/22 04:23:30;402615.00;1.34;694.30;0.00;0.00;0.62;;;;;18.40;3.70;;;;;;2276738;61;1107;-87
2022/10/22 04:25:58;270406.00;0.90;467.04;0.00;0.00;0.62;;;;;18.30;4.20;;;;;;2276594;61;1988;-86
2022/10/22 04:28:25;235006.00;0.78;406.16;0.00;0.00;0.62;;;;;18.20;5.60;;;;;;2276699;61;952;-86
2022/10/22 04:30:55;385854.00;1.29;665.49;28867.00;0.10;50.62;;;;;18.40;6.10;;;;;;2276594;61;1740;-87
2022/10/22 04:33:25;402117.00;1.34;693.44;68269.00;0.23;118.77;;;;;18.50;5.20;;;;;;2276489;61;1410;-86
2022/10/22 04:35:55;484685.00;1.62;835.46;74654.00;0.25;129.80;;;;;18.70;4.80;;;;;;2276485;61;1593;-85
2022/10/22 04:38:22;318414.00;1.06;549.57;5386.00;0.02;9.95;;;;;18.80;2.70;;;;;;2276613;61;2159;-86
2022/10/22 04:40:50;239276.00;0.80;413.51;0.00;0.00;0.62;;;;;18.40;2.20;;;;;;2276654;61;1086;-86
2022/10/22 04:56:19;374534.00;1.25;646.03;0.00;0.00;0.62;;;;;18.10;4.80;;;;;;2282080;40;2794;-86
2022/10/22 04:58:49;682692.00;2.28;1177.24;0.00;0.00;0.62;;;;;18.30;4.90;;;;;;2308498;41;3781;-87
2022/10/22 05:01:18;196751.00;0.66;340.33;0.00;0.00;0.62;;;;;18.10;2.60;;;;;;2276516;61;1549;-88
2022/10/22 05:03:46;210339.00;0.70;363.72;0.00;0.00;0.62;;;;;18.20;4.80;;;;;;2276492;61;1084;-88
2022/10/22 05:06:14;232672.00;0.78;402.15;0.00;0.00;0.62;;;;;18.20;3.70;;;;;;2276395;61;1998;-87
2022/10/22 05:08:42;280107.00;0.93;483.72;59854.00;0.20;104.22;;;;;18.00;4.70;;;;;;2276568;61;1076;-87
2022/10/22 05:11:17;210031.00;0.70;363.19;0.00;0.00;0.62;;;;;17.50;4.40;;;;;;2282240;40;3594;-87
2022/10/22 05:13:45;151281.00;0.50;262.02;0.00;0.00;0.62;;;;;17.20;6.40;;;;;;2273156;61;520;-86
2022/10/22 05:16:15;184715.00;0.62;319.61;0.00;0.00;0.62;;;;;17.00;5.90;;;;;;2272938;61;1674;-86
2022/10/22 05:18:44;205367.00;0.68;355.16;62478.00;0.21;108.76;;;;;17.00;6.30;;;;;;2272448;61;1449;-86
2022/10/22 05:21:13;470155.00;1.57;810.46;77038.00;0.26;133.92;;;;;17.40;7.00;;;;;;2272389;61;1408;-86
2022/10/22 05:23:40;659999.00;2.20;1137.94;157637.00;0.53;272.97;;;;;17.40;6.10;;;;;;2274559;55;3889;-87
2022/10/22 05:26:09;397173.00;1.32;684.95;54855.00;0.18;95.58;;;;;17.20;5.40;;;;;;2278064;40;3595;-88
2022/10/22 05:28:40;291036.00;0.97;502.51;51800.00;0.17;90.30;;;;;17.00;7.50;;;;;;2276253;61;1523;-86
2022/10/22 05:31:10;227066.00;0.76;392.50;0.00;0.00;0.62;;;;;16.90;8.20;;;;;;2276502;61;1005;-86
2022/10/22 05:33:38;321141.00;1.07;554.26;72305.00;0.24;125.74;;;;;16.80;6.70;;;;;;2276393;61;1672;-87
2022/10/22 05:36:08;223769.00;0.75;386.83;0.00;0.00;0.62;;;;;16.90;8.50;;;;;;2276303;61;1582;-86
2022/10/22 05:38:44;228658.00;0.76;395.24;0.00;0.00;0.62;;;;;17.10;6.70;;;;;;2276412;61;1754;-87
2022/10/22 05:41:13;217851.00;0.73;376.65;0.00;0.00;0.62;;;;;17.40;6.60;;;;;;2276477;61;1110;-86
2022/10/22 05:43:43;468573.00;1.56;807.73;0.00;0.00;0.62;;;;;17.50;7.20;;;;;;2276328;61;2141;-88
2022/10/22 05:46:14;278080.00;0.93;480.24;0.00;0.00;0.62;;;;;17.60;4.40;;;;;;2276280;61;2020;-85
2022/10/22 05:48:43;115757.00;0.39;200.76;0.00;0.00;0.62;;;;;17.80;4.60;;;;;;2276325;61;1010;-87
2022/10/22 05:51:14;431268.00;1.44;743.57;78274.00;0.26;136.06;;;;;18.00;4.80;;;;;;2276354;61;1600;-86
2022/10/22 05:53:44;254425.00;0.85;439.56;0.00;0.00;0.62;;;;;18.00;4.70;;;;;;2276333;61;922;-85
2022/10/22 05:56:16;149313.00;0.50;258.62;0.00;0.00;0.62;;;;;17.90;5.50;;;;;;2276411;61;1288;-87
2022/10/22 05:58:45;259775.00;0.87;448.76;86225.00;0.29;149.79;;;;;17.90;4.70;;;;;;2276178;61;2152;-86
2022/10/22 06:01:15;326738.00;1.09;563.88;0.00;0.00;0.62;;;;;17.80;4.60;;;;;;2276397;61;923;-88
2022/10/22 06:03:43;794456.00;2.65;1371.46;161411.00;0.54;279.47;;;;;18.00;4.70;;;;;;2276252;61;1479;-86
2022/10/22 06:06:20;257624.00;0.86;445.06;0.00;0.00;0.62;;;;;18.10;4.40;;;;;;2291323;40;3675;-87
2022/10/22 06:08:48;517572.00;1.73;892.08;0.00;0.00;0.62;;;;;17.90;4.60;;;;;;2276266;61;1657;-86
2022/10/22 06:11:17;182113.00;0.61;315.13;0.00;0.00;0.62;;;;;17.90;5.90;;;;;;2276366;61;1458;-87
2022/10/22 06:13:46;278769.00;0.93;481.42;11434.00;0.04;20.43;;;;;17.90;5.00;;;;;;2276315;61;1009;-85
2022/10/22 06:16:14;174151.00;0.58;301.42;0.00;0.00;0.62;;;;;17.90;4.90;;;;;;2276294;61;1423;-87
2022/10/22 06:18:43;205343.00;0.68;355.12;77463.00;0.26;134.65;;;;;17.80;6.20;;;;;;2276281;61;1509;-87
2022/10/22 06:21:13;271459.00;0.90;468.85;67643.00;0.23;117.69;;;;;17.80;6.50;;;;;;2276177;61;1444;-86
2022/10/22 06:23:43;144701.00;0.48;250.67;0.00;0.00;0.62;;;;;17.90;6.20;;;;;;2276140;61;1123;-87
2022/10/22 06:26:16;509822.00;1.70;878.74;75108.00;0.25;130.59;;;;;18.20;5.20;;;;;;2276290;61;1243;-88
2022/10/22 06:28:45;487714.00;1.63;840.67;181002.00;0.60;313.22;;;;;18.30;3.50;;;;;;2276122;61;1931;-86
2022/10/22 06:31:15;454417.00;1.51;783.38;81667.00;0.27;141.92;;;;;18.10;3.70;;;;;;2276250;61;1461;-87
2022/10/22 06:33:45;415978.00;1.39;717.28;69212.00;0.23;120.40;;;;;18.10;4.00;;;;;;2276252;61;976;-87
2022/10/22 06:36:15;404221.00;1.35;697.06;81696.00;0.27;141.97;;;;;18.00;4.70;;;;;;2283335;55;3833;-88
2022/10/22 06:38:46;510375.00;1.70;879.69;69059.00;0.23;120.13;;;;;18.10;4.00;;;;;;2276251;61;927;-86
2022/10/22 06:41:17;306305.00;1.02;528.76;69572.00;0.23;121.02;;;;;18.10;4.50;;;;;;2276196;61;1451;-87
2022/10/22 06:43:47;740051.00;2.47;1276.76;95456.00;0.32;165.73;;;;;18.00;4.10;;;;;;2276039;61;1396;-86
2022/10/22 06:46:17;310547.00;1.04;536.05;72523.00;0.24;126.12;;;;;18.00;6.40;;;;;;2276203;61;1360;-86
2022/10/22 06:48:51;527836.00;1.76;909.76;80441.00;0.27;139.80;;;;;18.40;4.80;;;;;;2276197;61;2033;-86
2022/10/22 06:51:19;347465.00;1.16;599.50;0.00;0.00;0.62;;;;;18.50;5.00;;;;;;2276269;61;1014;-86
2022/10/22 06:53:49;388435.00;1.29;669.92;0.00;0.00;0.62;;;;;18.70;4.10;;;;;;2276157;61;1451;-86
2022/10/22 06:56:22;322681.00;1.08;556.91;0.00;0.00;0.62;;;;;18.80;3.80;;;;;;2276176;61;1294;-86
2022/10/22 07:01:31;1987429.00;6.62;3598.54;0.00;0.00;0.62;;;;;18.50;3.40;;;;;;2323252;55;3574;-85
2022/10/22 07:03:59;229658.00;0.77;396.96;0.00;0.00;0.62;;;;;18.50;4.60;;;;;;2293101;40;3746;-87
2022/10/22 07:06:28;349523.00;1.17;603.04;0.00;0.00;0.62;;;;;18.60;4.70;;;;;;2276098;61;1502;-87
2022/10/22 07:08:56;209965.00;0.70;363.08;81716.00;0.27;142.00;;;;;18.80;3.40;;;;;;2276199;61;1924;-87
2022/10/22 07:11:28;264341.00;0.88;456.61;27087.00;0.09;47.54;;;;;18.80;3.60;;;;;;2276186;61;939;-86
2022/10/22 07:13:59;186730.00;0.62;323.08;1105.00;0.00;2.54;;;;;19.00;2.50;;;;;;2276090;61;1519;-86
2022/10/22 07:16:31;278956.00;0.93;481.74;0.00;0.00;0.62;;;;;19.00;3.00;;;;;;2276033;61;1389;-88
2022/10/22 07:19:01;250719.00;0.84;433.19;33920.00;0.11;59.37;;;;;19.30;2.10;;;;;;2276942;61;1562;-87
2022/10/22 07:21:29;362624.00;1.21;625.56;0.00;0.00;0.62;;;;;18.90;1.90;;;;;;2276901;61;1099;-87
2022/10/22 07:23:56;231229.00;0.77;399.66;18639.00;0.06;32.91;;;;;18.70;3.20;;;;;;2276736;61;1497;-87
2022/10/22 07:26:25;343461.00;1.14;592.62;0.00;0.00;0.62;;;;;18.40;3.90;;;;;;2276859;61;1397;-87
2022/10/22 07:28:56;74007.00;0.25;128.68;0.00;0.00;0.62;;;;;18.40;4.50;;;;;;2276867;61;2014;-86
2022/10/22 07:31:40;224560.00;0.75;388.19;54020.00;0.18;94.14;;;;;18.60;4.30;;;;;;2276710;61;1587;-85
2022/10/22 07:34:06;182520.00;0.61;315.83;0.00;0.00;0.62;;;;;18.40;2.90;;;;;;2276882;61;1606;-87
2022/10/22 07:36:38;26792.00;0.09;47.03;0.00;0.00;0.62;;;;;18.20;4.90;;;;;;2276742;61;1399;-87
2022/10/22 07:41:52;213903.00;0.71;369.85;0.00;0.00;0.62;;;;;18.60;3.90;;;;;;2276435;61;1135;-87
2022/10/22 07:44:19;206787.00;0.69;357.61;16990.00;0.06;30.06;;;;;19.00;4.70;;;;;;2276827;61;1633;-86
2022/10/22 07:46:52;249742.00;0.83;431.51;0.00;0.00;0.62;;;;;19.10;2.70;;;;;;2276751;61;1923;-86
2022/10/22 07:49:19;281238.00;0.94;485.67;0.00;0.00;0.62;;;;;19.30;3.40;;;;;;2295533;55;3721;-88
2022/10/22 07:51:46;380197.00;1.27;655.76;60872.00;0.20;105.98;;;;;19.60;1.90;;;;;;2281917;40;3574;-88
2022/10/22 07:54:13;426267.00;1.42;734.97;54574.00;0.18;95.10;;;;;19.60;2.00;;;;;;2290285;40;3571;-87
2022/10/22 07:59:11;1296130.00;4.32;2265.02;144312.00;0.48;250.00;;;;;19.80;1.70;;;;;;2270345;61;1411;-88
2022/10/22 08:01:38;176054.00;0.59;304.69;21389.00;0.07;37.68;;;;;19.90;1.00;;;;;;2268786;61;1605;-87
2022/10/22 08:04:08;265928.00;0.89;459.34;90606.00;0.30;157.35;;;;;20.20;1.00;;;;;;2268861;61;1016;-87
2022/10/22 08:06:38;203794.00;0.68;352.45;22641.00;0.08;39.84;;;;;20.40;1.00;;;;;;2268717;61;1499;-88
2022/10/22 08:09:05;223756.00;0.75;386.81;0.00;0.00;0.62;;;;;20.70;1.00;;;;;;2268809;61;2011;-87
2022/10/22 08:11:37;356875.00;1.19;615.68;108666.00;0.36;188.53;;;;;20.80;1.00;;;;;;2284176;55;3734;-88
2022/10/22 08:14:07;45996.00;0.15;80.26;0.00;0.00;0.62;;;;;21.10;1.00;;;;;;2276736;61;1133;-88
2022/10/22 08:16:37;437535.00;1.46;754.34;0.00;0.00;0.62;;;;;21.20;1.00;;;;;;2276755;61;1418;-88
2022/10/22 08:19:17;203049.00;0.68;351.17;0.00;0.00;0.62;;;;;21.40;1.00;;;;;;2276849;61;1134;-87
2022/10/22 08:24:30;438760.00;1.46;756.45;60338.00;0.20;105.06;;;;;21.70;1.00;;;;;;2279905;55;3745;-89
2022/10/22 08:26:58;410131.00;1.37;707.22;60022.00;0.20;104.51;;;;;21.70;1.00;;;;;;2276520;61;1992;-87
2022/10/22 08:29:28;584166.00;1.95;1006.89;149520.00;0.50;258.98;;;;;21.90;1.00;;;;;;2276508;61;1704;-89
2022/10/22 08:32:06;582331.00;1.94;1003.72;202893.00;0.68;350.90;;;;;21.90;1.00;;;;;;2276793;61;1437;-89
2022/10/22 08:34:36;415656.00;1.39;716.72;64546.00;0.22;112.33;;;;;22.00;1.00;;;;;;2276752;61;1424;-88
2022/10/22 08:37:13;435603.00;1.45;751.02;95591.00;0.32;165.96;;;;;22.00;1.00;;;;;;2276764;61;892;-87
2022/10/22 08:39:41;413304.00;1.38;712.68;67866.00;0.23;118.07;;;;;22.00;1.00;;;;;;2276690;61;1599;-88
2022/10/22 08:42:32;554439.00;1.85;955.61;118025.00;0.39;204.68;;;;;22.10;1.00;;;;;;2276657;61;1569;-88
2022/10/22 08:45:16;265515.00;0.89;458.63;0.00;0.00;0.62;;;;;22.10;1.00;;;;;;2276679;61;1455;-88
2022/10/22 08:48:04;450081.00;1.50;775.92;29406.00;0.10;51.55;;;;;22.30;1.00;;;;;;2276635;61;1922;-86
2022/10/22 08:50:37;324987.00;1.08;560.87;29053.00;0.10;50.94;;;;;22.40;1.00;;;;;;2276703;61;1232;-87
2022/10/22 08:53:10;427612.00;1.43;737.28;41702.00;0.14;72.83;;;;;22.20;1.00;;;;;;2276628;61;1561;-88
2022/10/22 08:55:42;349256.00;1.16;602.58;0.00;0.00;0.62;;;;;22.10;1.00;;;;;;2276666;61;1605;-87
2022/10/22 08:58:21;510292.00;1.70;879.55;85387.00;0.28;148.34;;;;;22.10;1.00;;;;;;2276638;61;1448;-89
2022/10/22 09:00:56;280077.00;0.93;483.67;0.00;0.00;0.62;;;;;22.10;1.00;;;;;;2305567;40;3581;-87
2022/10/22 09:03:41;230833.00;0.77;398.98;13610.00;0.05;24.20;;;;;22.10;1.00;;;;;;2276650;61;1611;-89
2022/10/22 09:06:17;242447.00;0.81;418.96;0.00;0.00;0.62;;;;;22.10;1.00;;;;;;2276692;61;1359;-87
2022/10/22 09:08:47;189749.00;0.63;328.28;0.00;0.00;0.62;;;;;22.00;1.00;;;;;;2276513;61;2010;-88
2022/10/22 09:11:26;608485.00;2.03;1048.87;18958.00;0.06;33.47;;;;;21.90;1.00;;;;;;2297666;40;3709;-89
2022/10/22 09:13:56;393154.00;1.31;678.04;35267.00;0.12;61.70;;;;;21.90;1.00;;;;;;2276578;61;998;-86
2022/10/22 09:16:35;561035.00;1.87;966.99;0.00;0.00;0.62;;;;;21.70;1.00;;;;;;2276421;61;1634;-88
2022/10/22 09:19:15;296863.00;0.99;512.53;0.00;0.00;0.62;;;;;21.70;1.00;;;;;;2276553;61;1622;-88
2022/10/22 09:24:44;27827.00;0.09;48.82;0.00;0.00;0.62;;;;;22.10;1.00;;;;;;2284366;40;3578;-90
2022/10/22 09:27:18;291388.00;0.97;503.12;64788.00;0.22;112.75;;;;;22.20;1.00;;;;;;2294803;55;3830;-87
2022/10/22 09:29:51;429499.00;1.43;740.52;0.00;0.00;0.62;;;;;22.20;1.00;;;;;;2276454;61;1364;-88
2022/10/22 09:32:22;171737.00;0.57;297.26;0.00;0.00;0.62;;;;;22.10;1.00;;;;;;2276520;61;1467;-87
2022/10/22 09:34:53;255897.00;0.85;442.09;0.00;0.00;0.62;;;;;21.80;1.00;;;;;;2276368;61;1439;-89
2022/10/22 09:37:27;188710.00;0.63;326.49;0.00;0.00;0.62;;;;;21.70;1.00;;;;;;2276453;61;1578;-87
2022/10/22 09:39:59;325018.00;1.08;560.92;0.00;0.00;0.62;;;;;21.80;1.00;;;;;;2276409;61;1499;-88
2022/10/22 09:42:27;222187.00;0.74;384.11;0.00;0.00;0.62;;;;;22.10;1.00;;;;;;2276564;61;1004;-88
2022/10/22 09:44:59;275567.00;0.92;475.92;0.00;0.00;0.62;;;;;22.10;1.00;;;;;;2276471;61;1584;-89
2022/10/22 09:47:34;276310.00;0.92;477.19;0.00;0.00;0.62;;;;;22.10;1.00;;;;;;2276444;61;1929;-88
2022/10/22 09:53:18;735635.00;2.45;1269.09;56302.00;0.19;98.08;;;;;21.50;1.00;;;;;;2270279;61;1404;-87
2022/10/22 09:56:11;342353.00;1.14;590.72;54586.00;0.18;95.12;;;;;21.70;1.00;;;;;;2268384;61;1476;-87
2022/10/22 09:58:48;339795.00;1.13;586.32;57439.00;0.19;100.05;;;;;22.00;1.00;;;;;;2268481;61;1024;-88
2022/10/22 10:01:21;220749.00;0.74;381.63;54624.00;0.18;95.18;;;;;22.10;1.00;;;;;;2268290;61;1071;-86
2022/10/22 10:03:51;792184.00;2.64;1367.50;142416.00;0.47;246.74;;;;;22.40;1.00;;;;;;2268274;61;1664;-87
2022/10/22 10:06:26;478406.00;1.59;824.65;123693.00;0.41;214.45;;;;;22.40;1.00;;;;;;2268228;61;1652;-87
2022/10/22 10:11:43;345770.00;1.15;596.59;58325.00;0.19;101.58;;;;;22.30;1.00;;;;;;2268345;61;1766;-86
2022/10/22 10:14:21;498543.00;1.66;859.32;0.00;0.00;0.62;;;;;22.40;1.00;;;;;;2268310;61;1550;-88
2022/10/22 10:16:58;237552.00;0.79;410.54;17990.00;0.06;31.79;;;;;22.10;1.00;;;;;;2268175;61;1740;-89
2022/10/22 10:19:40;347417.00;1.16;599.42;30942.00;0.10;54.21;;;;;22.20;1.00;;;;;;2268323;61;1029;-87
2022/10/22 10:22:20;349763.00;1.17;603.45;48556.00;0.16;84.69;;;;;21.80;1.00;;;;;;2268326;61;1056;-88
2022/10/22 10:25:29;637504.00;2.13;1099.02;103585.00;0.35;179.76;;;;;21.70;1.00;;;;;;2268252;61;1623;-89
2022/10/22 10:30:40;1258488.00;4.19;2196.33;0.00;0.00;0.62;;;;;21.70;1.00;;;;;;2265950;61;1282;-87
2022/10/22 10:33:28;226823.00;0.76;392.08;0.00;0.00;0.62;;;;;21.90;1.00;;;;;;2264240;61;1364;-87
2022/10/22 10:39:01;262888.00;0.88;454.11;0.00;0.00;0.62;;;;;22.30;1.00;;;;;;2263619;61;1465;-86
2022/10/22 10:42:05;170774.00;0.57;295.60;0.00;0.00;0.62;;;;;21.90;1.00;;;;;;2264252;61;1064;-87
2022/10/22 10:55:06;1333184.00;4.44;2332.97;10844.00;0.04;19.41;;;;;22.10;1.00;;;;;;2275940;40;3512;-88
2022/10/22 11:01:03;0.00;0.00;0.62;0.00;0.00;0.62;;;;;22.20;1.00;;;;;;2400177;40;1841;-90